sensor_id;sensor_type;location;lat;lon;timestamp;temperature;humidity
15926;DHT22;8062;53.882;10.642;2023-08-01T00:00:56;15.60;99.90
15926;DHT22;8062;53.882;10.642;2023-08-01T00:02:16;15.60;99.90
15926;DHT22;8062;53.882;10.642;2023-08-01T00:03:35;15.60;99.90
15926;DHT22;8062;53.882;10.642;2023-08-01T00:04:55;15.60;99.90
15926;DHT22;8062;53.882;10.642;2023-08-01T00:06:14;15.60;99.90
15926;DHT22;8062;53.882;10.642;2023-08-01T00:07:33;15.60;99.90
15926;DHT22;8062;53.882;10.642;2023-08-01T00:08:53;15.60;99.90
15926;DHT22;8062;53.882;10.642;2023-08-01T00:10:12;15.60;99.90
15926;DHT22;8062;53.882;10.642;2023-08-01T00:11:31;15.60;99.90
15926;DHT22;8062;53.882;10.642;2023-08-01T00:12:51;15.60;99.90
15926;DHT22;8062;53.882;10.642;2023-08-01T00:14:11;15.60;99.90
15926;DHT22;8062;53.882;10.642;2023-08-01T00:15:30;15.60;99.90
15926;DHT22;8062;53.882;10.642;2023-08-01T00:16:50;15.60;99.90
15926;DHT22;8062;53.882;10.642;2023-08-01T00:18:10;15.60;99.90
15926;DHT22;8062;53.882;10.642;2023-08-01T00:19:29;15.60;99.90
15926;DHT22;8062;53.882;10.642;2023-08-01T00:20:52;15.60;99.90
15926;DHT22;8062;53.882;10.642;2023-08-01T00:22:12;15.60;99.90
15926;DHT22;8062;53.882;10.642;2023-08-01T00:23:32;15.60;99.90
15926;DHT22;8062;53.882;10.642;2023-08-01T00:24:51;15.60;99.90
15926;DHT22;8062;53.882;10.642;2023-08-01T00:26:11;15.60;99.90
15926;DHT22;8062;53.882;10.642;2023-08-01T00:27:30;15.70;99.90
15926;DHT22;8062;53.882;10.642;2023-08-01T00:28:51;15.70;99.90
15926;DHT22;8062;53.882;10.642;2023-08-01T00:30:11;15.70;99.90
15926;DHT22;8062;53.882;10.642;2023-08-01T00:31:30;15.70;99.90
15926;DHT22;8062;53.882;10.642;2023-08-01T00:32:49;15.70;99.90
15926;DHT22;8062;53.882;10.642;2023-08-01T00:34:09;15.80;99.90
15926;DHT22;8062;53.882;10.642;2023-08-01T00:35:28;15.80;99.90
15926;DHT22;8062;53.882;10.642;2023-08-01T00:36:48;15.80;99.90
15926;DHT22;8062;53.882;10.642;2023-08-01T00:38:08;15.80;99.90
15926;DHT22;8062;53.882;10.642;2023-08-01T00:39:28;15.80;99.90
15926;DHT22;8062;53.882;10.642;2023-08-01T00:40:48;15.80;99.90
15926;DHT22;8062;53.882;10.642;2023-08-01T00:42:09;15.80;99.90
15926;DHT22;8062;53.882;10.642;2023-08-01T00:43:29;15.80;99.90
15926;DHT22;8062;53.882;10.642;2023-08-01T00:44:48;15.80;99.90
15926;DHT22;8062;53.882;10.642;2023-08-01T00:46:08;15.80;99.90
15926;DHT22;8062;53.882;10.642;2023-08-01T00:47:28;15.80;99.90
15926;DHT22;8062;53.882;10.642;2023-08-01T00:48:48;15.80;99.90
15926;DHT22;8062;53.882;10.642;2023-08-01T00:50:08;15.80;99.90
15926;DHT22;8062;53.882;10.642;2023-08-01T00:51:29;15.80;99.90
15926;DHT22;8062;53.882;10.642;2023-08-01T00:52:50;15.70;99.90
15926;DHT22;8062;53.882;10.642;2023-08-01T00:54:11;15.80;99.90
15926;DHT22;8062;53.882;10.642;2023-08-01T00:55:32;15.80;99.90
15926;DHT22;8062;53.882;10.642;2023-08-01T00:56:51;15.80;99.90
15926;DHT22;8062;53.882;10.642;2023-08-01T00:58:11;15.70;99.90
15926;DHT22;8062;53.882;10.642;2023-08-01T00:59:31;15.70;99.90
15926;DHT22;8062;53.882;10.642;2023-08-01T01:00:51;15.70;99.90
15926;DHT22;8062;53.882;10.642;2023-08-01T01:02:11;15.70;99.90
15926;DHT22;8062;53.882;10.642;2023-08-01T01:03:31;15.70;99.90
15926;DHT22;8062;53.882;10.642;2023-08-01T01:04:50;15.70;99.90
15926;DHT22;8062;53.882;10.642;2023-08-01T01:06:17;15.60;99.90
15926;DHT22;8062;53.882;10.642;2023-08-01T01:07:39;15.70;99.90
15926;DHT22;8062;53.882;10.642;2023-08-01T01:08:59;15.60;99.90
15926;DHT22;8062;53.882;10.642;2023-08-01T01:10:19;15.70;99.90
15926;DHT22;8062;53.882;10.642;2023-08-01T01:11:39;15.60;99.90
15926;DHT22;8062;53.882;10.642;2023-08-01T01:12:59;15.60;99.90
15926;DHT22;8062;53.882;10.642;2023-08-01T01:14:18;15.60;99.90
15926;DHT22;8062;53.882;10.642;2023-08-01T01:15:38;15.60;99.90
15926;DHT22;8062;53.882;10.642;2023-08-01T01:16:58;15.60;99.90
15926;DHT22;8062;53.882;10.642;2023-08-01T01:18:19;15.60;99.90
15926;DHT22;8062;53.882;10.642;2023-08-01T01:19:39;15.60;99.90
15926;DHT22;8062;53.882;10.642;2023-08-01T01:20:58;15.60;99.90
15926;DHT22;8062;53.882;10.642;2023-08-01T01:22:19;15.60;99.90
15926;DHT22;8062;53.882;10.642;2023-08-01T01:23:39;15.60;99.90
15926;DHT22;8062;53.882;10.642;2023-08-01T01:25:00;15.60;99.90
15926;DHT22;8062;53.882;10.642;2023-08-01T01:26:21;15.60;99.90
15926;DHT22;8062;53.882;10.642;2023-08-01T01:27:41;15.60;99.90
15926;DHT22;8062;53.882;10.642;2023-08-01T01:29:03;15.60;99.90
15926;DHT22;8062;53.882;10.642;2023-08-01T01:30:23;15.60;99.90
15926;DHT22;8062;53.882;10.642;2023-08-01T01:31:43;15.60;99.90
15926;DHT22;8062;53.882;10.642;2023-08-01T01:33:04;15.60;99.90
15926;DHT22;8062;53.882;10.642;2023-08-01T01:34:24;15.60;99.90
15926;DHT22;8062;53.882;10.642;2023-08-01T01:35:44;15.60;99.90
15926;DHT22;8062;53.882;10.642;2023-08-01T01:37:03;15.60;99.90
15926;DHT22;8062;53.882;10.642;2023-08-01T01:38:23;15.60;99.90
15926;DHT22;8062;53.882;10.642;2023-08-01T01:39:42;15.60;99.90
15926;DHT22;8062;53.882;10.642;2023-08-01T01:41:02;15.60;99.90
15926;DHT22;8062;53.882;10.642;2023-08-01T01:42:22;15.60;99.90
15926;DHT22;8062;53.882;10.642;2023-08-01T01:43:42;15.60;99.90
15926;DHT22;8062;53.882;10.642;2023-08-01T01:45:01;15.60;99.90
15926;DHT22;8062;53.882;10.642;2023-08-01T01:46:21;15.60;99.90
15926;DHT22;8062;53.882;10.642;2023-08-01T01:47:40;15.60;99.90
15926;DHT22;8062;53.882;10.642;2023-08-01T01:49:00;15.60;99.90
15926;DHT22;8062;53.882;10.642;2023-08-01T01:50:20;15.60;99.90
15926;DHT22;8062;53.882;10.642;2023-08-01T01:51:39;15.50;99.90
15926;DHT22;8062;53.882;10.642;2023-08-01T01:52:59;15.50;99.90
15926;DHT22;8062;53.882;10.642;2023-08-01T01:54:19;15.50;99.90
15926;DHT22;8062;53.882;10.642;2023-08-01T01:55:38;15.60;99.90
15926;DHT22;8062;53.882;10.642;2023-08-01T01:56:59;15.60;99.90
15926;DHT22;8062;53.882;10.642;2023-08-01T01:58:19;15.60;99.90
15926;DHT22;8062;53.882;10.642;2023-08-01T01:59:38;15.60;99.90
15926;DHT22;8062;53.882;10.642;2023-08-01T02:00:58;15.60;99.90
15926;DHT22;8062;53.882;10.642;2023-08-01T02:02:18;15.60;99.90
15926;DHT22;8062;53.882;10.642;2023-08-01T02:03:38;15.60;99.90
15926;DHT22;8062;53.882;10.642;2023-08-01T02:04:57;15.70;99.90
15926;DHT22;8062;53.882;10.642;2023-08-01T02:06:17;15.70;99.90
15926;DHT22;8062;53.882;10.642;2023-08-01T02:07:37;15.70;99.90
15926;DHT22;8062;53.882;10.642;2023-08-01T02:08:57;15.70;99.90
15926;DHT22;8062;53.882;10.642;2023-08-01T02:10:18;15.70;99.90
15926;DHT22;8062;53.882;10.642;2023-08-01T02:11:38;15.70;99.90
15926;DHT22;8062;53.882;10.642;2023-08-01T02:12:57;15.70;99.90
15926;DHT22;8062;53.882;10.642;2023-08-01T02:14:17;15.70;99.90
15926;DHT22;8062;53.882;10.642;2023-08-01T02:15:37;15.70;99.90
15926;DHT22;8062;53.882;10.642;2023-08-01T02:16:56;15.70;99.90
15926;DHT22;8062;53.882;10.642;2023-08-01T02:18:16;15.70;99.90
15926;DHT22;8062;53.882;10.642;2023-08-01T02:19:36;15.70;99.90
15926;DHT22;8062;53.882;10.642;2023-08-01T02:20:56;15.70;99.90
15926;DHT22;8062;53.882;10.642;2023-08-01T02:22:15;15.70;99.90
15926;DHT22;8062;53.882;10.642;2023-08-01T02:23:35;15.60;99.90
15926;DHT22;8062;53.882;10.642;2023-08-01T02:24:56;15.60;99.90
15926;DHT22;8062;53.882;10.642;2023-08-01T02:26:16;15.60;99.90
15926;DHT22;8062;53.882;10.642;2023-08-01T02:27:35;15.70;99.90
15926;DHT22;8062;53.882;10.642;2023-08-01T02:28:55;15.60;99.90
15926;DHT22;8062;53.882;10.642;2023-08-01T02:30:15;15.60;99.90
15926;DHT22;8062;53.882;10.642;2023-08-01T02:31:36;15.60;99.90
15926;DHT22;8062;53.882;10.642;2023-08-01T02:32:56;15.60;99.90
15926;DHT22;8062;53.882;10.642;2023-08-01T02:34:15;15.60;99.90
15926;DHT22;8062;53.882;10.642;2023-08-01T02:35:35;15.60;99.90
15926;DHT22;8062;53.882;10.642;2023-08-01T02:36:54;15.60;99.90
15926;DHT22;8062;53.882;10.642;2023-08-01T02:38:14;15.60;99.90
15926;DHT22;8062;53.882;10.642;2023-08-01T02:39:35;15.50;99.90
15926;DHT22;8062;53.882;10.642;2023-08-01T02:40:54;15.50;99.90
15926;DHT22;8062;53.882;10.642;2023-08-01T02:42:14;15.50;99.90
15926;DHT22;8062;53.882;10.642;2023-08-01T02:43:33;15.50;99.90
15926;DHT22;8062;53.882;10.642;2023-08-01T02:44:56;15.50;99.90
15926;DHT22;8062;53.882;10.642;2023-08-01T02:46:16;15.50;99.90
15926;DHT22;8062;53.882;10.642;2023-08-01T02:47:35;15.50;99.90
15926;DHT22;8062;53.882;10.642;2023-08-01T02:48:55;15.50;99.90
15926;DHT22;8062;53.882;10.642;2023-08-01T02:50:15;15.40;99.90
15926;DHT22;8062;53.882;10.642;2023-08-01T02:51:34;15.40;99.90
15926;DHT22;8062;53.882;10.642;2023-08-01T02:52:54;15.40;99.90
15926;DHT22;8062;53.882;10.642;2023-08-01T02:54:14;15.40;99.90
15926;DHT22;8062;53.882;10.642;2023-08-01T02:55:33;15.40;99.90
15926;DHT22;8062;53.882;10.642;2023-08-01T02:56:53;15.30;99.90
15926;DHT22;8062;53.882;10.642;2023-08-01T02:58:12;15.30;99.90
15926;DHT22;8062;53.882;10.642;2023-08-01T02:59:32;15.30;99.90
15926;DHT22;8062;53.882;10.642;2023-08-01T03:00:52;15.30;99.90
15926;DHT22;8062;53.882;10.642;2023-08-01T03:02:12;15.30;99.90
15926;DHT22;8062;53.882;10.642;2023-08-01T03:03:31;15.30;99.90
15926;DHT22;8062;53.882;10.642;2023-08-01T03:04:51;15.30;99.90
15926;DHT22;8062;53.882;10.642;2023-08-01T03:06:10;15.30;99.90
15926;DHT22;8062;53.882;10.642;2023-08-01T03:07:30;15.30;99.90
15926;DHT22;8062;53.882;10.642;2023-08-01T03:08:49;15.30;99.90
15926;DHT22;8062;53.882;10.642;2023-08-01T03:10:09;15.30;99.90
15926;DHT22;8062;53.882;10.642;2023-08-01T03:11:30;15.30;99.90
15926;DHT22;8062;53.882;10.642;2023-08-01T03:12:50;15.30;99.90
15926;DHT22;8062;53.882;10.642;2023-08-01T03:14:09;15.30;99.90
15926;DHT22;8062;53.882;10.642;2023-08-01T03:15:29;15.30;99.90
15926;DHT22;8062;53.882;10.642;2023-08-01T03:16:49;15.30;99.90
15926;DHT22;8062;53.882;10.642;2023-08-01T03:18:09;15.30;99.90
15926;DHT22;8062;53.882;10.642;2023-08-01T03:19:29;15.40;99.90
15926;DHT22;8062;53.882;10.642;2023-08-01T03:20:49;15.40;99.90
15926;DHT22;8062;53.882;10.642;2023-08-01T03:22:09;15.40;99.90
15926;DHT22;8062;53.882;10.642;2023-08-01T03:23:30;15.40;99.90
15926;DHT22;8062;53.882;10.642;2023-08-01T03:24:49;15.40;99.90
15926;DHT22;8062;53.882;10.642;2023-08-01T03:26:09;15.40;99.90
15926;DHT22;8062;53.882;10.642;2023-08-01T03:27:28;15.40;99.90
15926;DHT22;8062;53.882;10.642;2023-08-01T03:28:48;15.40;99.90
15926;DHT22;8062;53.882;10.642;2023-08-01T03:30:08;15.40;99.90
15926;DHT22;8062;53.882;10.642;2023-08-01T03:31:28;15.40;99.90
15926;DHT22;8062;53.882;10.642;2023-08-01T03:32:48;15.40;99.90
15926;DHT22;8062;53.882;10.642;2023-08-01T03:34:07;15.40;99.90
15926;DHT22;8062;53.882;10.642;2023-08-01T03:35:29;15.40;99.90
15926;DHT22;8062;53.882;10.642;2023-08-01T03:36:49;15.40;99.90
15926;DHT22;8062;53.882;10.642;2023-08-01T03:38:09;15.40;99.90
15926;DHT22;8062;53.882;10.642;2023-08-01T03:39:29;15.40;99.90
15926;DHT22;8062;53.882;10.642;2023-08-01T03:40:49;15.40;99.90
15926;DHT22;8062;53.882;10.642;2023-08-01T03:42:09;15.50;99.90
15926;DHT22;8062;53.882;10.642;2023-08-01T03:43:28;15.40;99.90
15926;DHT22;8062;53.882;10.642;2023-08-01T03:44:47;15.40;99.90
15926;DHT22;8062;53.882;10.642;2023-08-01T03:46:07;15.40;99.90
15926;DHT22;8062;53.882;10.642;2023-08-01T03:47:26;15.40;99.90
15926;DHT22;8062;53.882;10.642;2023-08-01T03:48:46;15.40;99.90
15926;DHT22;8062;53.882;10.642;2023-08-01T03:50:06;15.40;99.90
15926;DHT22;8062;53.882;10.642;2023-08-01T03:51:25;15.40;99.90
15926;DHT22;8062;53.882;10.642;2023-08-01T03:52:45;15.40;99.90
15926;DHT22;8062;53.882;10.642;2023-08-01T03:54:04;15.30;99.90
15926;DHT22;8062;53.882;10.642;2023-08-01T03:55:24;15.30;99.90
15926;DHT22;8062;53.882;10.642;2023-08-01T03:56:43;15.40;99.90
15926;DHT22;8062;53.882;10.642;2023-08-01T03:58:04;15.40;99.90
15926;DHT22;8062;53.882;10.642;2023-08-01T03:59:25;15.40;99.90
15926;DHT22;8062;53.882;10.642;2023-08-01T04:00:45;15.40;99.90
15926;DHT22;8062;53.882;10.642;2023-08-01T04:02:05;15.40;99.90
15926;DHT22;8062;53.882;10.642;2023-08-01T04:03:24;15.40;99.90
15926;DHT22;8062;53.882;10.642;2023-08-01T04:04:44;15.40;99.90
15926;DHT22;8062;53.882;10.642;2023-08-01T04:06:03;15.40;99.90
15926;DHT22;8062;53.882;10.642;2023-08-01T04:07:23;15.40;99.90
15926;DHT22;8062;53.882;10.642;2023-08-01T04:08:42;15.40;99.90
15926;DHT22;8062;53.882;10.642;2023-08-01T04:10:02;15.50;99.90
15926;DHT22;8062;53.882;10.642;2023-08-01T04:11:22;15.50;99.90
15926;DHT22;8062;53.882;10.642;2023-08-01T04:12:41;15.50;99.90
15926;DHT22;8062;53.882;10.642;2023-08-01T04:14:02;15.50;99.90
15926;DHT22;8062;53.882;10.642;2023-08-01T04:15:21;15.50;99.90
15926;DHT22;8062;53.882;10.642;2023-08-01T04:16:41;15.50;99.90
15926;DHT22;8062;53.882;10.642;2023-08-01T04:18:00;15.50;99.90
15926;DHT22;8062;53.882;10.642;2023-08-01T04:19:20;15.50;99.90
15926;DHT22;8062;53.882;10.642;2023-08-01T04:20:39;15.50;99.90
15926;DHT22;8062;53.882;10.642;2023-08-01T04:21:59;15.50;99.90
15926;DHT22;8062;53.882;10.642;2023-08-01T04:23:18;15.50;99.90
15926;DHT22;8062;53.882;10.642;2023-08-01T04:24:38;15.50;99.90
15926;DHT22;8062;53.882;10.642;2023-08-01T04:25:57;15.50;99.90
15926;DHT22;8062;53.882;10.642;2023-08-01T04:27:18;15.50;99.90
15926;DHT22;8062;53.882;10.642;2023-08-01T04:28:38;15.60;99.90
15926;DHT22;8062;53.882;10.642;2023-08-01T04:29:58;15.60;99.90
15926;DHT22;8062;53.882;10.642;2023-08-01T04:31:18;15.60;99.90
15926;DHT22;8062;53.882;10.642;2023-08-01T04:32:37;15.60;99.90
15926;DHT22;8062;53.882;10.642;2023-08-01T04:33:57;15.60;99.90
15926;DHT22;8062;53.882;10.642;2023-08-01T04:35:17;15.60;99.90
15926;DHT22;8062;53.882;10.642;2023-08-01T04:36:36;15.60;99.90
15926;DHT22;8062;53.882;10.642;2023-08-01T04:37:56;15.60;99.90
15926;DHT22;8062;53.882;10.642;2023-08-01T04:39:15;15.60;99.90
15926;DHT22;8062;53.882;10.642;2023-08-01T04:40:35;15.70;99.90
15926;DHT22;8062;53.882;10.642;2023-08-01T04:41:54;15.70;99.90
15926;DHT22;8062;53.882;10.642;2023-08-01T04:43:14;15.70;99.90
15926;DHT22;8062;53.882;10.642;2023-08-01T04:44:33;15.70;99.90
15926;DHT22;8062;53.882;10.642;2023-08-01T04:45:53;15.80;99.90
15926;DHT22;8062;53.882;10.642;2023-08-01T04:47:14;15.80;99.90
15926;DHT22;8062;53.882;10.642;2023-08-01T04:48:33;15.80;99.90
15926;DHT22;8062;53.882;10.642;2023-08-01T04:49:52;15.80;99.90
15926;DHT22;8062;53.882;10.642;2023-08-01T04:51:12;15.90;99.90
15926;DHT22;8062;53.882;10.642;2023-08-01T04:52:31;15.90;99.90
15926;DHT22;8062;53.882;10.642;2023-08-01T04:53:51;15.90;99.90
15926;DHT22;8062;53.882;10.642;2023-08-01T04:55:10;15.90;99.90
15926;DHT22;8062;53.882;10.642;2023-08-01T04:56:29;15.90;99.90
15926;DHT22;8062;53.882;10.642;2023-08-01T04:57:49;16.00;99.90
15926;DHT22;8062;53.882;10.642;2023-08-01T04:59:08;16.00;99.90
15926;DHT22;8062;53.882;10.642;2023-08-01T05:00:28;16.00;99.90
15926;DHT22;8062;53.882;10.642;2023-08-01T05:01:47;16.00;99.90
15926;DHT22;8062;53.882;10.642;2023-08-01T05:03:07;16.00;99.90
15926;DHT22;8062;53.882;10.642;2023-08-01T05:04:27;16.00;99.90
15926;DHT22;8062;53.882;10.642;2023-08-01T05:05:46;16.00;99.90
15926;DHT22;8062;53.882;10.642;2023-08-01T05:07:06;16.10;99.90
15926;DHT22;8062;53.882;10.642;2023-08-01T05:08:25;16.10;99.90
15926;DHT22;8062;53.882;10.642;2023-08-01T05:09:45;16.10;99.90
15926;DHT22;8062;53.882;10.642;2023-08-01T05:11:04;16.10;99.90
15926;DHT22;8062;53.882;10.642;2023-08-01T05:12:24;16.10;99.90
15926;DHT22;8062;53.882;10.642;2023-08-01T05:13:43;16.10;99.90
15926;DHT22;8062;53.882;10.642;2023-08-01T05:15:03;16.10;99.90
15926;DHT22;8062;53.882;10.642;2023-08-01T05:16:22;16.10;99.90
15926;DHT22;8062;53.882;10.642;2023-08-01T05:17:42;16.10;99.90
15926;DHT22;8062;53.882;10.642;2023-08-01T05:19:02;16.10;99.90
15926;DHT22;8062;53.882;10.642;2023-08-01T05:20:22;16.10;99.90
15926;DHT22;8062;53.882;10.642;2023-08-01T05:21:41;16.20;99.90
15926;DHT22;8062;53.882;10.642;2023-08-01T05:23:01;16.20;99.90
15926;DHT22;8062;53.882;10.642;2023-08-01T05:24:21;16.20;99.90
15926;DHT22;8062;53.882;10.642;2023-08-01T05:25:40;16.20;99.90
15926;DHT22;8062;53.882;10.642;2023-08-01T05:27:00;16.20;99.90
15926;DHT22;8062;53.882;10.642;2023-08-01T05:28:19;16.30;99.90
15926;DHT22;8062;53.882;10.642;2023-08-01T05:29:38;16.30;99.90
15926;DHT22;8062;53.882;10.642;2023-08-01T05:30:58;16.30;99.90
15926;DHT22;8062;53.882;10.642;2023-08-01T05:32:18;16.30;99.90
15926;DHT22;8062;53.882;10.642;2023-08-01T05:33:37;16.30;99.90
15926;DHT22;8062;53.882;10.642;2023-08-01T05:34:57;16.30;99.90
15926;DHT22;8062;53.882;10.642;2023-08-01T05:36:16;16.30;99.90
15926;DHT22;8062;53.882;10.642;2023-08-01T05:37:35;16.30;99.90
15926;DHT22;8062;53.882;10.642;2023-08-01T05:38:55;16.30;99.90
15926;DHT22;8062;53.882;10.642;2023-08-01T05:40:14;16.40;99.90
15926;DHT22;8062;53.882;10.642;2023-08-01T05:41:33;16.40;99.90
15926;DHT22;8062;53.882;10.642;2023-08-01T05:42:53;16.40;99.90
15926;DHT22;8062;53.882;10.642;2023-08-01T05:44:13;16.40;99.90
15926;DHT22;8062;53.882;10.642;2023-08-01T05:45:32;16.40;99.90
15926;DHT22;8062;53.882;10.642;2023-08-01T05:46:52;16.50;99.90
15926;DHT22;8062;53.882;10.642;2023-08-01T05:48:12;16.50;99.90
15926;DHT22;8062;53.882;10.642;2023-08-01T05:49:33;16.50;99.90
15926;DHT22;8062;53.882;10.642;2023-08-01T05:50:52;16.60;99.90
15926;DHT22;8062;53.882;10.642;2023-08-01T05:52:14;16.60;99.90
15926;DHT22;8062;53.882;10.642;2023-08-01T05:53:34;16.60;99.90
15926;DHT22;8062;53.882;10.642;2023-08-01T05:54:53;16.60;99.90
15926;DHT22;8062;53.882;10.642;2023-08-01T05:56:14;16.70;99.90
15926;DHT22;8062;53.882;10.642;2023-08-01T05:57:33;16.70;99.90
15926;DHT22;8062;53.882;10.642;2023-08-01T05:58:53;16.60;99.90
15926;DHT22;8062;53.882;10.642;2023-08-01T06:00:13;16.60;99.90
15926;DHT22;8062;53.882;10.642;2023-08-01T06:01:33;16.70;99.90
15926;DHT22;8062;53.882;10.642;2023-08-01T06:02:53;16.70;99.90
15926;DHT22;8062;53.882;10.642;2023-08-01T06:04:13;16.70;99.90
15926;DHT22;8062;53.882;10.642;2023-08-01T06:05:33;16.70;99.90
15926;DHT22;8062;53.882;10.642;2023-08-01T06:06:52;16.60;99.90
15926;DHT22;8062;53.882;10.642;2023-08-01T06:08:12;16.70;99.90
15926;DHT22;8062;53.882;10.642;2023-08-01T06:09:32;16.70;99.90
15926;DHT22;8062;53.882;10.642;2023-08-01T06:10:52;16.70;99.90
15926;DHT22;8062;53.882;10.642;2023-08-01T06:12:11;16.70;99.90
15926;DHT22;8062;53.882;10.642;2023-08-01T06:13:31;16.70;99.90
15926;DHT22;8062;53.882;10.642;2023-08-01T06:14:50;16.70;99.90
15926;DHT22;8062;53.882;10.642;2023-08-01T06:16:10;16.70;99.90
15926;DHT22;8062;53.882;10.642;2023-08-01T06:17:30;16.80;99.90
15926;DHT22;8062;53.882;10.642;2023-08-01T06:18:50;16.70;99.90
15926;DHT22;8062;53.882;10.642;2023-08-01T06:20:10;16.70;99.90
15926;DHT22;8062;53.882;10.642;2023-08-01T06:21:30;16.70;99.90
15926;DHT22;8062;53.882;10.642;2023-08-01T06:22:49;16.70;99.90
15926;DHT22;8062;53.882;10.642;2023-08-01T06:24:08;16.70;99.90
15926;DHT22;8062;53.882;10.642;2023-08-01T06:25:29;16.70;99.90
15926;DHT22;8062;53.882;10.642;2023-08-01T06:26:49;16.70;99.90
15926;DHT22;8062;53.882;10.642;2023-08-01T06:28:08;16.70;99.90
15926;DHT22;8062;53.882;10.642;2023-08-01T06:29:28;16.70;99.90
15926;DHT22;8062;53.882;10.642;2023-08-01T06:30:48;16.70;99.90
15926;DHT22;8062;53.882;10.642;2023-08-01T06:32:07;16.70;99.90
15926;DHT22;8062;53.882;10.642;2023-08-01T06:33:27;16.70;99.90
15926;DHT22;8062;53.882;10.642;2023-08-01T06:34:46;16.70;99.90
15926;DHT22;8062;53.882;10.642;2023-08-01T06:36:06;16.60;99.90
15926;DHT22;8062;53.882;10.642;2023-08-01T06:37:25;16.60;99.90
15926;DHT22;8062;53.882;10.642;2023-08-01T06:38:45;16.60;99.90
15926;DHT22;8062;53.882;10.642;2023-08-01T06:40:06;16.60;99.90
15926;DHT22;8062;53.882;10.642;2023-08-01T06:41:25;16.70;99.90
15926;DHT22;8062;53.882;10.642;2023-08-01T06:42:45;16.70;99.90
15926;DHT22;8062;53.882;10.642;2023-08-01T06:44:04;16.80;99.90
15926;DHT22;8062;53.882;10.642;2023-08-01T06:45:24;16.70;99.90
15926;DHT22;8062;53.882;10.642;2023-08-01T06:46:43;16.80;99.90
15926;DHT22;8062;53.882;10.642;2023-08-01T06:48:03;16.80;99.90
15926;DHT22;8062;53.882;10.642;2023-08-01T06:49:23;16.70;99.90
15926;DHT22;8062;53.882;10.642;2023-08-01T06:50:43;16.80;99.90
15926;DHT22;8062;53.882;10.642;2023-08-01T06:52:02;17.00;99.90
15926;DHT22;8062;53.882;10.642;2023-08-01T06:53:22;17.00;99.90
15926;DHT22;8062;53.882;10.642;2023-08-01T06:54:41;17.10;99.90
15926;DHT22;8062;53.882;10.642;2023-08-01T06:56:01;17.10;99.90
15926;DHT22;8062;53.882;10.642;2023-08-01T06:57:20;17.10;99.90
15926;DHT22;8062;53.882;10.642;2023-08-01T06:58:40;17.20;99.90
15926;DHT22;8062;53.882;10.642;2023-08-01T06:59:59;17.10;99.90
15926;DHT22;8062;53.882;10.642;2023-08-01T07:01:19;17.20;99.90
15926;DHT22;8062;53.882;10.642;2023-08-01T07:02:38;17.10;99.90
15926;DHT22;8062;53.882;10.642;2023-08-01T07:03:58;17.10;99.90
15926;DHT22;8062;53.882;10.642;2023-08-01T07:05:17;17.10;99.90
15926;DHT22;8062;53.882;10.642;2023-08-01T07:06:37;17.10;99.90
15926;DHT22;8062;53.882;10.642;2023-08-01T07:07:57;17.10;99.90
15926;DHT22;8062;53.882;10.642;2023-08-01T07:09:17;17.20;99.90
15926;DHT22;8062;53.882;10.642;2023-08-01T07:10:37;17.20;99.90
15926;DHT22;8062;53.882;10.642;2023-08-01T07:11:56;17.10;99.90
15926;DHT22;8062;53.882;10.642;2023-08-01T07:13:16;17.10;99.90
15926;DHT22;8062;53.882;10.642;2023-08-01T07:14:36;17.00;99.90
15926;DHT22;8062;53.882;10.642;2023-08-01T07:15:55;17.10;99.90
15926;DHT22;8062;53.882;10.642;2023-08-01T07:17:14;17.00;99.90
15926;DHT22;8062;53.882;10.642;2023-08-01T07:18:34;17.00;99.90
15926;DHT22;8062;53.882;10.642;2023-08-01T07:19:54;17.00;99.90
15926;DHT22;8062;53.882;10.642;2023-08-01T07:21:14;16.80;99.90
15926;DHT22;8062;53.882;10.642;2023-08-01T07:22:34;16.80;99.90
15926;DHT22;8062;53.882;10.642;2023-08-01T07:23:53;16.80;99.90
15926;DHT22;8062;53.882;10.642;2023-08-01T07:25:13;16.80;99.90
15926;DHT22;8062;53.882;10.642;2023-08-01T07:26:33;16.80;99.90
15926;DHT22;8062;53.882;10.642;2023-08-01T07:27:52;16.80;99.90
15926;DHT22;8062;53.882;10.642;2023-08-01T07:29:12;16.80;99.90
15926;DHT22;8062;53.882;10.642;2023-08-01T07:30:34;16.80;99.90
15926;DHT22;8062;53.882;10.642;2023-08-01T07:31:54;16.80;99.90
15926;DHT22;8062;53.882;10.642;2023-08-01T07:33:13;16.80;99.90
15926;DHT22;8062;53.882;10.642;2023-08-01T07:34:33;16.70;99.90
15926;DHT22;8062;53.882;10.642;2023-08-01T07:35:52;16.70;99.90
15926;DHT22;8062;53.882;10.642;2023-08-01T07:37:12;16.70;99.90
15926;DHT22;8062;53.882;10.642;2023-08-01T07:38:32;16.60;99.90
15926;DHT22;8062;53.882;10.642;2023-08-01T07:39:52;16.70;99.90
15926;DHT22;8062;53.882;10.642;2023-08-01T07:41:12;16.60;99.90
15926;DHT22;8062;53.882;10.642;2023-08-01T07:42:31;16.70;99.90
15926;DHT22;8062;53.882;10.642;2023-08-01T07:43:51;16.70;99.90
15926;DHT22;8062;53.882;10.642;2023-08-01T07:45:10;16.70;99.90
15926;DHT22;8062;53.882;10.642;2023-08-01T07:46:29;16.80;99.90
15926;DHT22;8062;53.882;10.642;2023-08-01T07:47:49;16.80;99.90
15926;DHT22;8062;53.882;10.642;2023-08-01T07:49:09;16.80;99.90
15926;DHT22;8062;53.882;10.642;2023-08-01T07:50:28;16.80;99.90
15926;DHT22;8062;53.882;10.642;2023-08-01T07:51:48;16.80;99.90
15926;DHT22;8062;53.882;10.642;2023-08-01T07:53:07;16.80;99.90
15926;DHT22;8062;53.882;10.642;2023-08-01T07:54:27;17.00;99.90
15926;DHT22;8062;53.882;10.642;2023-08-01T07:55:46;17.10;99.90
15926;DHT22;8062;53.882;10.642;2023-08-01T07:57:06;17.20;99.90
15926;DHT22;8062;53.882;10.642;2023-08-01T07:58:25;17.20;99.90
15926;DHT22;8062;53.882;10.642;2023-08-01T07:59:45;17.30;99.90
15926;DHT22;8062;53.882;10.642;2023-08-01T08:01:05;17.20;99.90
15926;DHT22;8062;53.882;10.642;2023-08-01T08:02:25;17.20;99.90
15926;DHT22;8062;53.882;10.642;2023-08-01T08:03:45;17.10;99.90
15926;DHT22;8062;53.882;10.642;2023-08-01T08:05:05;17.10;99.90
15926;DHT22;8062;53.882;10.642;2023-08-01T08:06:24;17.10;99.90
15926;DHT22;8062;53.882;10.642;2023-08-01T08:07:44;17.20;99.90
15926;DHT22;8062;53.882;10.642;2023-08-01T08:09:03;17.10;99.90
15926;DHT22;8062;53.882;10.642;2023-08-01T08:10:23;17.10;99.90
15926;DHT22;8062;53.882;10.642;2023-08-01T08:11:42;17.00;99.90
15926;DHT22;8062;53.882;10.642;2023-08-01T08:13:02;17.10;99.90
15926;DHT22;8062;53.882;10.642;2023-08-01T08:14:22;17.10;99.90
15926;DHT22;8062;53.882;10.642;2023-08-01T08:15:43;17.10;99.90
15926;DHT22;8062;53.882;10.642;2023-08-01T08:17:02;17.20;99.90
15926;DHT22;8062;53.882;10.642;2023-08-01T08:18:22;17.30;99.90
15926;DHT22;8062;53.882;10.642;2023-08-01T08:19:42;17.40;99.90
15926;DHT22;8062;53.882;10.642;2023-08-01T08:21:01;17.50;99.90
15926;DHT22;8062;53.882;10.642;2023-08-01T08:22:21;17.80;99.90
15926;DHT22;8062;53.882;10.642;2023-08-01T08:23:41;17.80;99.90